Time;durP1;ratioP1;P1;durP2;ratioP2;P2;SDS_P1;SDS_P2;PMS_P1;PMS_P2;Temp;Humidity;BMP_temperature;BMP_pressure;BME280_temperature;BME280_humidity;BME280_pressure;Samples;Min_cycle;Max_cycle;Signal;HPM_P1;HPM_P2
2022/01/23 00:00:31;;;;;;;15.18;11.00;;;8.90;95.80;;;;;;4998116;28;20076;-74
2022/01/23 00:03:00;;;;;;;17.40;13.10;;;8.90;95.70;;;;;;4972061;28;20035;-74
2022/01/23 00:05:33;;;;;;;13.23;10.80;;;8.90;95.70;;;;;;4983442;28;20140;-75
2022/01/23 00:07:59;;;;;;;13.27;11.55;;;8.90;95.70;;;;;;5028255;28;20391;-74
2022/01/23 00:10:25;;;;;;;12.05;10.95;;;8.90;95.70;;;;;;5029196;28;20034;-75
2022/01/23 00:12:56;;;;;;;;;;;8.90;95.70;;;;;;5028105;28;20037;-75
2022/01/23 00:18:06;;;;;;;13.63;10.02;;;8.90;95.60;;;;;;5028470;28;20296;-76
2022/01/23 00:20:33;;;;;;;16.00;10.68;;;8.90;95.70;;;;;;5029099;28;20053;-75
2022/01/23 00:23:02;;;;;;;11.38;10.02;;;8.80;95.60;;;;;;5028822;28;20033;-75
2022/01/23 00:30:59;;;;;;;10.98;9.85;;;8.80;95.60;;;;;;5028217;28;20032;-73
2022/01/23 00:33:25;;;;;;;13.27;9.52;;;8.70;95.60;;;;;;5011215;28;20120;-74
2022/01/23 00:35:53;;;;;;;10.55;9.55;;;8.70;95.60;;;;;;5027288;28;20084;-74
2022/01/23 00:38:19;;;;;;;10.15;8.77;;;8.70;95.60;;;;;;5028480;28;20040;-75
2022/01/23 00:40:47;;;;;;;13.98;9.27;;;8.70;95.60;;;;;;5010640;28;20431;-75
2022/01/23 00:43:28;;;;;;;11.45;8.65;;;8.70;95.60;;;;;;5028681;28;20029;-76
2022/01/23 00:46:21;;;;;;;12.98;7.80;;;8.70;95.50;;;;;;5028427;28;20053;-75
2022/01/23 00:51:23;;;;;;;11.95;8.00;;;8.60;95.50;;;;;;5028516;28;20028;-74
2022/01/23 00:53:48;;;;;;;10.13;8.13;;;8.60;95.50;;;;;;5028132;28;20033;-75
2022/01/23 00:56:14;;;;;;;11.27;8.25;;;8.60;95.50;;;;;;5027049;28;20103;-75
2022/01/23 00:58:40;;;;;;;11.90;7.93;;;8.60;95.50;;;;;;5026898;28;20085;-75
2022/01/23 01:01:06;;;;;;;10.02;7.95;;;8.60;95.40;;;;;;5028241;28;20080;-75
2022/01/23 01:03:32;;;;;;;9.63;6.95;;;8.60;95.40;;;;;;5028540;28;20037;-75
2022/01/23 01:05:59;;;;;;;10.50;7.72;;;8.60;95.40;;;;;;5027112;28;20076;-75
2022/01/23 01:08:25;;;;;;;6.90;6.22;;;8.60;95.40;;;;;;5028185;28;20052;-74
2022/01/23 01:14:26;;;;;;;11.40;6.50;;;8.70;95.40;;;;;;5026194;28;20044;-76
2022/01/23 01:38:16;;;;;;;8.60;6.40;;;8.50;95.10;;;;;;5005507;28;20523;-75
2022/01/23 01:40:42;;;;;;;11.95;6.72;;;8.60;95.10;;;;;;5005314;28;20128;-75
2022/01/23 01:43:08;;;;;;;9.18;6.70;;;8.50;95.00;;;;;;5027698;28;20056;-75
2022/01/23 01:45:35;;;;;;;7.07;6.38;;;8.50;95.00;;;;;;5009484;28;20149;-75
2022/01/23 01:48:03;;;;;;;12.25;7.90;;;8.50;95.00;;;;;;5027492;28;20043;-75
2022/01/23 01:50:30;;;;;;;9.52;6.93;;;8.50;95.00;;;;;;5027569;28;20362;-76
2022/01/23 01:52:56;;;;;;;8.70;7.10;;;8.50;94.90;;;;;;5027531;28;20108;-75
2022/01/23 01:55:27;;;;;;;7.78;6.97;;;8.50;94.90;;;;;;5026129;28;20460;-76
2022/01/23 01:58:00;;;;;;;7.93;7.22;;;8.50;94.90;;;;;;5026378;28;20029;-75
2022/01/23 02:00:46;;;;;;;8.93;6.97;;;8.50;94.90;;;;;;5025936;28;20103;-76
2022/01/23 02:03:36;;;;;;;9.65;6.72;;;8.50;94.90;;;;;;5027922;28;20052;-76
2022/01/23 02:08:48;;;;;;;11.90;6.93;;;8.50;94.90;;;;;;5027721;28;20036;-76
2022/01/23 02:11:22;;;;;;;10.80;6.45;;;8.40;94.80;;;;;;5026217;28;20029;-75
2022/01/23 02:13:57;;;;;;;8.27;7.45;;;8.40;95.10;;;;;;5027559;28;20104;-75
2022/01/23 02:54:29;;;;;;;6.55;4.75;;;8.10;94.50;;;;;;5030199;28;20025;-75
2022/01/23 02:56:58;;;;;;;7.10;4.72;;;8.10;94.50;;;;;;5030021;28;20018;-75
2022/01/23 02:59:31;;;;;;;7.97;4.82;;;8.10;94.50;;;;;;5029001;28;20506;-75
2022/01/23 03:04:50;;;;;;;7.00;5.13;;;8.10;94.50;;;;;;5030547;28;20138;-75
2022/01/23 03:07:37;;;;;;;6.20;4.38;;;8.10;94.50;;;;;;5029144;28;20029;-75
2022/01/23 03:10:10;;;;;;;9.60;5.95;;;8.10;94.40;;;;;;5015622;28;20065;-75
2022/01/23 03:15:30;;;;;;;9.25;4.93;;;8.10;94.40;;;;;;5030194;28;20030;-75
2022/01/23 03:26:27;;;;;;;9.27;4.78;;;8.00;94.20;;;;;;5030345;28;20067;-75
2022/01/23 03:34:09;;;;;;;6.22;4.90;;;7.90;94.20;;;;;;5030145;28;20039;-76
2022/01/23 03:36:36;;;;;;;7.18;5.45;;;8.00;94.20;;;;;;5027649;28;20260;-75
2022/01/23 03:39:06;;;;;;;6.82;5.50;;;8.00;94.10;;;;;;5028669;28;20041;-75
2022/01/23 03:41:34;;;;;;;7.07;5.40;;;8.00;94.10;;;;;;5028792;28;20025;-75
2022/01/23 03:44:01;;;;;;;5.95;4.78;;;8.00;94.10;;;;;;5030183;28;20029;-75
2022/01/23 03:51:56;;;;;;;6.90;5.70;;;7.90;94.00;;;;;;5029896;28;20091;-75
2022/01/23 03:54:23;;;;;;;9.48;5.78;;;7.90;94.10;;;;;;5028347;28;20109;-75
2022/01/23 03:56:50;;;;;;;8.95;5.18;;;7.90;94.10;;;;;;5028212;28;20039;-75
2022/01/23 03:59:16;;;;;;;6.07;4.93;;;7.90;94.00;;;;;;5029481;28;20057;-74
2022/01/23 04:01:41;;;;;;;10.20;5.50;;;7.90;94.00;;;;;;5027807;28;20056;-75
2022/01/23 04:04:20;;;;;;;7.40;5.60;;;7.90;94.00;;;;;;5027444;28;20037;-75
2022/01/23 04:06:46;;;;;;;8.80;5.70;;;7.90;94.00;;;;;;5029233;28;20052;-75
2022/01/23 04:09:12;;;;;;;8.73;5.13;;;8.00;94.00;;;;;;5028181;28;20030;-75
2022/01/23 04:11:37;;;;;;;6.82;5.82;;;8.00;94.00;;;;;;5027984;28;20069;-76
2022/01/23 04:14:07;;;;;;;7.20;5.43;;;8.00;94.00;;;;;;5029340;28;20025;-75
2022/01/23 04:35:39;;;;;;;6.93;4.65;;;8.00;93.80;;;;;;5027642;28;20025;-76
2022/01/23 04:45:18;;;;;;;5.75;4.85;;;7.90;93.80;;;;;;5027818;28;20068;-75
2022/01/23 04:59:54;;;;;;;4.43;3.40;;;7.90;93.70;;;;;;5027583;28;20051;-75
2022/01/23 05:04:54;;;;;;;7.93;3.67;;;7.90;93.70;;;;;;5028815;28;20044;-75
2022/01/23 05:07:25;;;;;;;7.53;3.97;;;7.90;93.70;;;;;;5027027;28;20033;-76
2022/01/23 05:09:51;;;;;;;8.13;3.78;;;7.90;93.70;;;;;;5027471;28;20045;-75
2022/01/23 05:12:17;;;;;;;6.45;3.30;;;7.90;93.60;;;;;;5028290;28;20034;-76
2022/01/23 05:14:45;;;;;;;;;;;7.90;93.60;;;;;;5011046;28;20400;-75
2022/01/23 05:17:13;;;;;;;7.28;3.58;;;7.90;93.60;;;;;;5026895;28;19987;-76
2022/01/23 05:19:40;;;;;;;10.90;4.10;;;7.90;93.60;;;;;;5028103;28;20025;-75
2022/01/23 05:24:41;;;;;;;9.43;4.35;;;7.90;93.50;;;;;;5028086;28;20025;-76
2022/01/23 05:27:10;;;;;;;7.30;4.47;;;7.90;93.50;;;;;;5026843;28;20103;-75
2022/01/23 05:29:37;;;;;;;6.43;4.25;;;7.90;93.50;;;;;;5026758;28;20029;-75
2022/01/23 05:32:05;;;;;;;5.93;4.00;;;7.90;93.60;;;;;;5027953;28;20022;-74
2022/01/23 05:34:31;;;;;;;6.47;4.20;;;7.90;93.60;;;;;;5026461;28;20126;-75
2022/01/23 05:36:57;;;;;;;8.43;5.05;;;7.90;93.50;;;;;;5027804;28;20122;-75
2022/01/23 05:39:25;;;;;;;4.80;4.30;;;8.00;93.50;;;;;;5027967;28;20045;-76
2022/01/23 05:41:59;;;;;;;5.00;4.50;;;7.90;93.50;;;;;;5026492;28;20460;-75
2022/01/23 05:44:25;;;;;;;5.45;4.95;;;7.90;93.50;;;;;;5027789;28;20030;-75
2022/01/23 05:46:51;;;;;;;;;;;7.90;93.50;;;;;;5026765;28;20443;-76
2022/01/23 05:49:17;;;;;;;7.13;4.60;;;7.90;93.50;;;;;;5027687;28;19905;-74
2022/01/23 05:51:43;;;;;;;9.45;4.90;;;7.90;93.50;;;;;;5026578;28;20022;-75
2022/01/23 05:54:08;;;;;;;6.70;4.30;;;7.90;93.50;;;;;;5027552;28;20034;-75
2022/01/23 05:56:34;;;;;;;7.78;4.50;;;7.90;93.50;;;;;;5027613;28;20030;-76
2022/01/23 05:59:00;;;;;;;7.03;4.93;;;7.80;93.50;;;;;;5027064;28;20042;-75
2022/01/23 06:01:26;;;;;;;6.20;4.60;;;7.80;93.50;;;;;;5027538;28;20033;-76
2022/01/23 06:03:52;;;;;;;7.60;4.97;;;7.80;93.50;;;;;;5027512;28;20022;-75
2022/01/23 06:06:17;;;;;;;7.97;5.10;;;7.80;93.50;;;;;;5026180;28;20475;-75
2022/01/23 06:08:43;;;;;;;8.65;5.32;;;7.90;93.50;;;;;;5009732;28;20060;-76
2022/01/23 06:11:09;;;;;;;7.25;4.40;;;7.90;93.50;;;;;;5027569;28;20040;-76
2022/01/23 06:13:35;;;;;;;6.28;4.45;;;7.90;93.40;;;;;;5027433;28;20049;-76
2022/01/23 06:16:01;;;;;;;8.40;4.88;;;7.80;93.40;;;;;;5026028;28;20464;-75
2022/01/23 06:18:27;;;;;;;7.15;4.43;;;7.90;93.40;;;;;;5026203;28;20036;-76
2022/01/23 06:20:53;;;;;;;8.02;4.30;;;7.90;93.40;;;;;;5027437;28;20155;-75
2022/01/23 06:23:19;;;;;;;6.97;4.45;;;7.80;93.40;;;;;;5027321;28;20120;-76
2022/01/23 06:25:47;;;;;;;5.75;4.05;;;7.80;93.40;;;;;;5009424;28;20037;-75
2022/01/23 06:28:36;;;;;;;6.50;4.03;;;7.80;93.40;;;;;;5025925;28;20479;-76
2022/01/23 06:31:02;;;;;;;6.70;3.95;;;7.80;93.40;;;;;;5025987;28;20025;-76
2022/01/23 06:33:29;;;;;;;9.38;4.03;;;7.80;93.40;;;;;;5009583;28;20048;-75
2022/01/23 06:35:54;;;;;;;;;;;7.80;93.60;;;;;;5026235;28;20028;-75
2022/01/23 06:38:20;;;;;;;6.78;4.05;;;7.80;93.40;;;;;;5027629;28;19905;-75
2022/01/23 06:40:46;;;;;;;6.53;3.38;;;7.80;93.30;;;;;;5026244;28;20056;-77
2022/01/23 06:43:11;;;;;;;8.02;4.05;;;7.80;93.30;;;;;;5026058;28;20110;-77
2022/01/23 06:45:37;;;;;;;10.55;3.53;;;7.80;93.30;;;;;;5025758;28;20049;-75
2022/01/23 06:48:03;;;;;;;5.95;3.20;;;7.80;93.50;;;;;;5027264;28;20471;-75
2022/01/23 06:50:29;;;;;;;6.68;3.53;;;7.80;93.30;;;;;;5025938;28;20033;-75
2022/01/23 06:52:54;;;;;;;7.32;4.22;;;7.90;93.30;;;;;;5027010;28;20109;-75
2022/01/23 06:55:20;;;;;;;15.23;3.55;;;7.90;93.30;;;;;;5027197;28;20033;-75
2022/01/23 06:57:46;;;;;;;7.63;3.10;;;7.90;93.30;;;;;;5027040;28;20069;-76
2022/01/23 07:00:12;;;;;;;4.53;3.03;;;7.90;93.20;;;;;;5009309;28;20036;-75
2022/01/23 07:02:38;;;;;;;8.30;3.50;;;7.80;93.20;;;;;;5027027;28;20022;-77
2022/01/23 07:05:04;;;;;;;8.25;3.33;;;7.80;93.20;;;;;;5026916;28;20072;-75
2022/01/23 07:07:29;;;;;;;7.65;3.40;;;7.80;93.20;;;;;;5025422;28;20034;-77
2022/01/23 07:09:55;;;;;;;5.80;2.90;;;7.80;93.20;;;;;;5025556;28;20511;-76
2022/01/23 07:12:21;;;;;;;9.30;3.35;;;7.80;93.20;;;;;;5029151;28;20037;-76
2022/01/23 07:14:47;;;;;;;7.22;3.55;;;7.80;93.10;;;;;;5028694;28;20480;-75
2022/01/23 07:17:12;;;;;;;7.28;3.60;;;7.80;93.10;;;;;;5030166;28;20032;-75
2022/01/23 07:19:38;;;;;;;7.47;3.55;;;7.80;93.20;;;;;;5029093;28;20102;-76
2022/01/23 07:22:04;;;;;;;7.47;3.03;;;7.80;93.20;;;;;;5028959;28;20632;-76
2022/01/23 07:24:30;;;;;;;6.88;3.60;;;7.80;93.10;;;;;;5030235;28;20026;-76
2022/01/23 07:26:58;;;;;;;;;;;7.80;93.10;;;;;;5029319;28;20033;-75
2022/01/23 07:29:24;;;;;;;13.38;3.53;;;7.90;93.10;;;;;;5030273;28;19905;-75
2022/01/23 07:31:58;;;;;;;8.57;3.88;;;7.90;93.10;;;;;;5012395;28;20468;-76
2022/01/23 07:34:24;;;;;;;6.72;3.40;;;7.80;93.10;;;;;;5030120;28;20026;-75
2022/01/23 07:36:50;;;;;;;5.75;3.28;;;7.90;93.10;;;;;;5028597;28;20026;-75
2022/01/23 07:39:16;;;;;;;10.57;3.60;;;7.90;93.10;;;;;;5028760;28;20035;-76
2022/01/23 07:41:41;;;;;;;10.63;3.75;;;7.90;93.10;;;;;;5029998;28;20037;-76
2022/01/23 07:44:07;;;;;;;6.75;3.72;;;7.90;93.10;;;;;;5028721;28;20165;-76
2022/01/23 07:46:33;;;;;;;5.55;3.45;;;7.90;93.00;;;;;;5011699;28;20057;-76
2022/01/23 07:48:59;;;;;;;7.55;3.60;;;7.80;93.00;;;;;;5028340;28;20041;-75
2022/01/23 07:51:25;;;;;;;6.95;4.45;;;7.90;93.00;;;;;;5029595;28;20029;-75
2022/01/23 07:53:51;;;;;;;7.82;4.63;;;7.90;93.00;;;;;;5029507;28;20069;-76
2022/01/23 07:56:17;;;;;;;5.10;3.83;;;7.90;93.00;;;;;;5029311;28;20040;-76
2022/01/23 07:58:43;;;;;;;6.35;4.07;;;7.90;93.00;;;;;;5011376;28;20075;-76
2022/01/23 08:01:09;;;;;;;6.43;4.07;;;7.90;93.10;;;;;;5027833;28;20519;-75
2022/01/23 08:03:35;;;;;;;7.32;4.47;;;7.90;93.00;;;;;;5011842;28;20056;-76
2022/01/23 08:06:00;;;;;;;5.53;3.85;;;7.90;93.10;;;;;;5029374;28;20103;-75
2022/01/23 08:08:26;;;;;;;6.53;4.07;;;7.90;93.10;;;;;;5028184;28;20036;-76
2022/01/23 08:10:52;;;;;;;7.70;4.70;;;7.90;93.00;;;;;;5028129;28;20046;-75
2022/01/23 08:13:19;;;;;;;5.95;4.40;;;7.80;93.00;;;;;;5011567;28;20041;-76
2022/01/23 08:15:44;;;;;;;7.80;4.28;;;7.80;93.00;;;;;;5028011;28;20060;-76
2022/01/23 08:18:10;;;;;;;6.85;4.25;;;7.80;93.00;;;;;;5029153;28;20061;-76
2022/01/23 08:20:36;;;;;;;6.45;4.43;;;7.80;93.00;;;;;;5027660;28;20045;-76
2022/01/23 08:23:03;;;;;;;7.28;4.40;;;7.80;93.00;;;;;;5028549;28;20421;-76
2022/01/23 08:25:30;;;;;;;7.60;4.60;;;7.80;93.00;;;;;;5027481;28;20108;-75
2022/01/23 08:27:56;;;;;;;7.63;4.80;;;7.80;93.00;;;;;;5028575;28;20032;-76
2022/01/23 08:30:22;;;;;;;7.80;4.75;;;7.80;93.00;;;;;;5029103;28;20029;-76
2022/01/23 08:32:48;;;;;;;7.20;4.57;;;7.80;93.00;;;;;;5028969;28;20565;-75
2022/01/23 08:35:14;;;;;;;6.57;5.13;;;7.90;93.10;;;;;;5027447;28;20038;-76
2022/01/23 08:37:40;;;;;;;10.15;5.32;;;7.80;93.00;;;;;;5027471;28;20056;-75
2022/01/23 08:42:58;;;;;;;7.88;5.05;;;7.90;93.00;;;;;;5027692;28;20501;-75
2022/01/23 08:45:24;;;;;;;6.80;5.13;;;7.90;93.00;;;;;;5027107;28;20050;-75
2022/01/23 08:47:50;;;;;;;7.68;5.47;;;7.90;93.00;;;;;;5027443;28;20369;-75
2022/01/23 08:50:15;;;;;;;6.13;4.45;;;7.90;93.00;;;;;;5028597;28;20030;-75
2022/01/23 08:52:41;;;;;;;7.43;4.85;;;7.90;93.00;;;;;;5028403;28;20471;-73
2022/01/23 08:55:08;;;;;;;6.35;4.40;;;7.90;93.00;;;;;;5026817;28;20132;-76
2022/01/23 08:57:34;;;;;;;4.85;4.13;;;7.90;93.00;;;;;;5028121;28;20118;-76
2022/01/23 09:00:00;;;;;;;8.38;4.30;;;8.00;93.00;;;;;;5026915;28;20531;-75
2022/01/23 09:02:27;;;;;;;6.40;4.63;;;7.90;93.00;;;;;;5028317;28;20118;-75
2022/01/23 09:04:53;;;;;;;7.43;4.65;;;8.00;93.10;;;;;;5028235;28;20056;-75
2022/01/23 09:07:19;;;;;;;4.50;3.35;;;8.10;93.10;;;;;;5027937;28;20037;-75
2022/01/23 09:09:45;;;;;;;4.85;4.00;;;8.10;93.00;;;;;;5026485;28;20479;-75
2022/01/23 09:14:40;;;;;;;5.60;3.80;;;8.10;93.00;;;;;;5027576;28;20383;-75
2022/01/23 09:17:06;;;;;;;7.38;4.18;;;8.00;93.00;;;;;;5026388;28;20031;-74
2022/01/23 09:19:33;;;;;;;6.75;4.00;;;8.10;93.00;;;;;;5009696;28;20078;-75
2022/01/23 09:21:59;;;;;;;7.50;4.20;;;8.10;93.00;;;;;;5027759;28;20029;-75
2022/01/23 09:24:26;;;;;;;5.05;3.75;;;8.10;93.00;;;;;;5027465;28;20247;-75
2022/01/23 09:26:55;;;;;;;6.15;4.35;;;8.20;93.00;;;;;;5027524;28;20064;-75
2022/01/23 09:29:35;;;;;;;4.80;3.60;;;8.20;93.00;;;;;;5026053;28;20036;-75
2022/01/23 09:32:05;;;;;;;5.85;3.20;;;8.20;92.90;;;;;;5026261;28;20029;-74
2022/01/23 09:34:32;;;;;;;6.25;3.53;;;8.20;93.00;;;;;;5025332;28;20442;-75
2022/01/23 09:37:04;;;;;;;4.88;3.17;;;8.30;93.00;;;;;;5027382;28;20026;-76
2022/01/23 09:39:30;;;;;;;7.40;3.97;;;8.30;93.00;;;;;;5027000;28;20028;-75
2022/01/23 09:42:21;;;;;;;3.47;2.65;;;8.30;92.90;;;;;;5025811;28;20511;-75
2022/01/23 09:44:49;;;;;;;5.82;3.67;;;8.30;92.90;;;;;;5026073;28;20368;-75
2022/01/23 09:47:16;;;;;;;9.00;3.90;;;8.30;92.90;;;;;;5027179;28;20050;-76
2022/01/23 09:49:43;;;;;;;5.40;3.05;;;8.40;93.00;;;;;;5027370;28;20034;-76
2022/01/23 09:52:12;;;;;;;4.75;2.38;;;8.40;92.90;;;;;;5027392;28;20030;-75
2022/01/23 09:54:41;;;;;;;4.80;3.00;;;8.40;92.90;;;;;;5026663;28;20643;-76
2022/01/23 09:57:09;;;;;;;5.00;2.80;;;8.50;92.90;;;;;;5026712;28;20093;-75
2022/01/23 09:59:35;;;;;;;3.60;2.70;;;8.50;92.90;;;;;;5025577;28;20033;-76
2022/01/23 10:02:03;;;;;;;5.93;2.60;;;8.50;92.90;;;;;;5025795;28;20026;-75
2022/01/23 10:04:30;;;;;;;4.28;2.80;;;8.50;92.80;;;;;;5025949;28;20034;-75
2022/01/23 10:06:56;;;;;;;4.70;3.08;;;8.50;92.80;;;;;;5027110;28;20025;-75
2022/01/23 10:09:23;;;;;;;;;;;8.60;92.80;;;;;;5027751;28;20032;-76
2022/01/23 10:11:50;;;;;;;7.05;3.30;;;8.60;92.90;;;;;;5027167;28;20259;-75
2022/01/23 10:14:17;;;;;;;;;;;8.60;92.80;;;;;;5027266;28;20121;-75
2022/01/23 10:16:44;;;;;;;6.63;3.13;;;8.60;92.80;;;;;;5027064;28;20303;-75
2022/01/23 10:19:11;;;;;;;5.93;2.88;;;8.60;92.80;;;;;;5025761;28;20092;-76
2022/01/23 10:21:40;;;;;;;8.90;3.05;;;8.70;92.80;;;;;;5025630;28;20430;-76
2022/01/23 10:24:09;;;;;;;6.68;2.92;;;8.80;92.90;;;;;;5026945;28;20064;-75
2022/01/23 10:26:49;;;;;;;4.75;2.40;;;8.80;92.80;;;;;;5025246;28;20210;-75
2022/01/23 10:29:19;;;;;;;3.85;2.83;;;8.80;92.80;;;;;;5025535;28;20025;-75
2022/01/23 10:32:18;;;;;;;3.92;2.80;;;8.80;92.80;;;;;;5025250;28;20029;-75
2022/01/23 10:34:48;;;;;;;7.38;2.80;;;8.90;92.70;;;;;;5027147;28;20022;-76
2022/01/23 10:37:39;;;;;;;5.80;2.45;;;8.90;92.70;;;;;;5026477;28;20163;-75
2022/01/23 10:40:29;;;;;;;13.98;3.00;;;8.90;92.60;;;;;;5026890;28;20033;-75
2022/01/23 10:50:51;;;;;;;4.95;2.30;;;8.90;92.60;;;;;;5030554;28;20041;-75
2022/01/23 10:53:17;;;;;;;3.53;2.75;;;8.90;92.60;;;;;;5030100;28;20271;-75
2022/01/23 10:55:44;;;;;;;4.60;2.42;;;9.00;92.70;;;;;;5029847;28;20083;-66
2022/01/23 10:58:24;;;;;;;5.20;2.30;;;9.00;92.70;;;;;;5030006;28;20104;-75
2022/01/23 11:00:50;;;;;;;4.22;2.05;;;9.10;92.60;;;;;;5012302;28;20084;-76
2022/01/23 11:03:23;;;;;;;6.25;2.15;;;9.10;92.60;;;;;;5029836;28;20018;-75
2022/01/23 11:05:52;;;;;;;3.65;2.00;;;9.10;92.60;;;;;;5029714;28;20110;-76
2022/01/23 11:08:25;;;;;;;5.40;2.50;;;9.20;92.60;;;;;;5028906;28;20018;-75
2022/01/23 11:11:01;;;;;;;4.22;2.10;;;9.20;92.60;;;;;;5028130;28;20017;-75
2022/01/23 11:19:24;;;;;;;7.20;1.90;;;9.30;92.30;;;;;;5029991;28;20028;-75
2022/01/23 11:21:52;;;;;;;5.47;1.65;;;9.30;92.30;;;;;;5012919;28;20029;-75
2022/01/23 11:24:19;;;;;;;5.13;1.85;;;9.30;92.40;;;;;;5029906;28;20041;-75
2022/01/23 11:26:44;;;;;;;6.53;2.42;;;9.40;92.40;;;;;;5029319;28;20036;-75
2022/01/23 11:29:14;;;;;;;2.92;1.80;;;9.40;92.40;;;;;;5027655;28;20391;-75
2022/01/23 11:31:43;;;;;;;4.22;1.60;;;9.50;92.30;;;;;;5028040;28;20029;-76
2022/01/23 11:34:12;;;;;;;2.95;1.80;;;9.50;92.20;;;;;;5028829;28;20099;-76
2022/01/23 11:36:38;;;;;;;2.30;1.58;;;9.50;92.10;;;;;;5029345;28;20017;-75
2022/01/23 11:39:14;;;;;;;7.80;2.17;;;9.40;92.10;;;;;;5027814;28;20026;-76
2022/01/23 11:56:36;;;;;;;4.13;1.92;;;9.60;92.00;;;;;;5028718;28;20036;-74
2022/01/23 11:59:15;;;;;;;3.33;1.77;;;9.60;92.10;;;;;;5029015;28;20021;-74
2022/01/23 12:01:44;;;;;;;7.93;2.63;;;9.70;92.10;;;;;;5027440;28;20026;-76
2022/01/23 12:04:18;;;;;;;3.45;1.60;;;9.70;92.00;;;;;;5028845;28;20037;-74
2022/01/23 12:07:04;;;;;;;6.43;2.10;;;9.60;91.70;;;;;;5027244;28;20052;-74
2022/01/23 12:09:30;;;;;;;4.43;1.88;;;9.60;91.90;;;;;;5027047;28;20131;-75
2022/01/23 12:17:16;;;;;;;;;;;9.50;91.90;;;;;;5029178;28;20065;-75
2022/01/23 12:19:49;;;;;;;6.57;2.13;;;9.50;91.90;;;;;;5028405;28;20332;-74
2022/01/23 12:22:37;;;;;;;3.67;2.10;;;9.50;91.90;;;;;;5026733;28;20044;-75
2022/01/23 12:25:24;;;;;;;10.43;2.20;;;9.50;91.90;;;;;;5027735;28;20113;-74
2022/01/23 12:28:11;;;;;;;9.82;2.65;;;9.50;91.90;;;;;;5027862;28;20025;-74
2022/01/23 12:30:38;;;;;;;4.97;1.92;;;9.60;91.90;;;;;;5028401;28;20064;-74
2022/01/23 12:33:20;;;;;;;10.85;2.67;;;9.60;91.80;;;;;;5028132;28;20155;-74
2022/01/23 12:35:53;;;;;;;7.15;2.40;;;9.60;91.80;;;;;;5026962;28;20244;-75
2022/01/23 12:38:28;;;;;;;8.65;2.20;;;9.60;91.70;;;;;;5026479;28;20033;-75
2022/01/23 12:40:54;;;;;;;5.43;2.35;;;9.50;91.80;;;;;;5026331;28;20033;-75
2022/01/23 12:43:24;;;;;;;4.57;2.47;;;9.50;91.80;;;;;;5027371;28;20188;-76
2022/01/23 12:46:00;;;;;;;6.78;3.55;;;9.60;91.80;;;;;;5027494;28;20077;-75
2022/01/23 12:48:26;;;;;;;6.00;2.40;;;9.60;91.90;;;;;;5026498;28;20036;-75
2022/01/23 12:51:14;;;;;;;7.10;3.05;;;9.70;91.90;;;;;;5026260;28;20029;-75
2022/01/23 12:53:51;;;;;;;;;;;9.70;91.80;;;;;;5027895;28;20054;-73
2022/01/23 12:56:22;;;;;;;4.88;2.10;;;9.70;91.80;;;;;;5027294;28;19912;-75
2022/01/23 12:59:05;;;;;;;5.05;2.72;;;9.70;91.60;;;;;;5028286;28;20104;-75
2022/01/23 13:01:31;;;;;;;4.00;2.13;;;9.60;91.60;;;;;;5027931;28;20018;-75
2022/01/23 13:04:00;;;;;;;4.20;1.52;;;9.60;91.40;;;;;;5025993;28;20080;-75
2022/01/23 13:06:31;;;;;;;4.03;1.88;;;9.50;91.30;;;;;;5025635;28;20033;-75
2022/01/23 13:12:13;;;;;;;7.82;1.88;;;9.40;91.50;;;;;;5027496;28;20056;-75
2022/01/23 13:14:53;;;;;;;10.23;2.22;;;9.40;91.50;;;;;;5026746;28;20104;-74
2022/01/23 13:31:43;;;;;;;10.68;2.28;;;9.40;91.20;;;;;;5027189;28;20044;-75
2022/01/23 13:34:33;;;;;;;6.47;1.83;;;9.30;91.30;;;;;;5026912;28;20022;-75
2022/01/23 13:37:01;;;;;;;14.95;2.90;;;9.30;91.30;;;;;;5020598;28;20095;-71
2022/01/23 13:39:56;;;;;;;7.15;2.30;;;9.30;91.40;;;;;;5026384;28;20029;-75
2022/01/23 14:00:12;;;;;;;5.55;1.92;;;9.50;91.40;;;;;;5025487;28;20028;-74
2022/01/23 14:02:38;;;;;;;12.65;3.22;;;9.40;91.40;;;;;;5026286;28;20044;-75
2022/01/23 14:05:14;;;;;;;8.82;2.70;;;9.40;91.40;;;;;;5026928;28;20029;-75
2022/01/23 14:07:45;;;;;;;7.13;2.57;;;9.40;91.50;;;;;;5025036;28;20038;-74
2022/01/23 14:10:23;;;;;;;7.05;3.03;;;9.40;91.50;;;;;;5025466;28;20495;-75
2022/01/23 14:12:51;;;;;;;9.00;3.38;;;9.40;91.50;;;;;;5026566;28;20029;-75
2022/01/23 14:15:24;;;;;;;7.30;2.92;;;9.40;91.60;;;;;;5026129;28;20025;-74
2022/01/23 14:18:06;;;;;;;12.20;3.65;;;9.40;91.60;;;;;;5026338;28;20406;-75
2022/01/23 14:20:39;;;;;;;7.25;2.85;;;9.40;91.60;;;;;;5026360;28;20345;-75
2022/01/23 14:23:22;;;;;;;9.57;3.13;;;9.50;91.70;;;;;;5030649;28;20017;-75
2022/01/23 14:25:56;;;;;;;10.32;3.53;;;9.50;91.70;;;;;;5028949;28;20022;-74
2022/01/23 14:28:34;;;;;;;4.85;2.67;;;9.50;91.70;;;;;;5030028;28;20017;-76
2022/01/23 14:31:12;;;;;;;9.48;3.00;;;9.60;91.70;;;;;;5028563;28;20048;-75
2022/01/23 14:33:38;;;;;;;14.07;3.53;;;9.60;91.70;;;;;;5030064;28;20037;-76
2022/01/23 14:36:21;;;;;;;10.20;3.55;;;9.60;91.60;;;;;;5031269;28;20041;-74
2022/01/23 14:39:01;;;;;;;5.25;2.40;;;9.60;91.60;;;;;;5030409;28;20100;-77
2022/01/23 14:41:30;;;;;;;7.03;3.00;;;9.60;91.60;;;;;;5029744;28;20029;-75
2022/01/23 14:43:56;;;;;;;10.32;3.60;;;9.60;91.60;;;;;;5028655;28;20438;-75
2022/01/23 14:46:23;;;;;;;7.50;3.28;;;9.60;91.50;;;;;;5029868;28;20047;-75
2022/01/23 14:48:50;;;;;;;6.97;2.83;;;9.50;91.50;;;;;;5030496;28;20025;-76
2022/01/23 14:51:23;;;;;;;5.07;2.60;;;9.50;91.70;;;;;;5029967;28;20029;-75
2022/01/23 14:53:51;;;;;;;9.23;2.92;;;9.50;91.50;;;;;;5012281;28;20403;-75
2022/01/23 14:56:18;;;;;;;12.18;3.47;;;9.40;91.50;;;;;;5029873;28;20022;-75
2022/01/23 14:58:45;;;;;;;8.45;3.90;;;9.40;91.60;;;;;;5029588;28;20025;-76
2022/01/23 15:01:13;;;;;;;11.57;3.45;;;9.40;91.60;;;;;;5029511;28;20104;-75
2022/01/23 15:03:43;;;;;;;11.77;3.78;;;9.40;91.60;;;;;;5029417;28;20037;-75
2022/01/23 15:06:10;;;;;;;7.68;3.25;;;9.40;91.60;;;;;;5027786;28;20041;-75
2022/01/23 15:08:38;;;;;;;6.95;2.75;;;9.40;91.60;;;;;;5028264;28;20113;-75
2022/01/23 15:11:04;;;;;;;9.27;3.08;;;9.40;91.60;;;;;;5028248;28;20112;-75
2022/01/23 15:13:30;;;;;;;12.68;4.75;;;9.40;91.60;;;;;;5029506;28;20032;-76
2022/01/23 15:15:57;;;;;;;6.55;3.38;;;9.40;91.70;;;;;;5029913;28;20032;-76
2022/01/23 15:18:24;;;;;;;8.85;3.38;;;9.40;91.70;;;;;;5029437;28;20021;-75
2022/01/23 15:20:50;;;;;;;14.02;4.72;;;9.40;91.60;;;;;;5029624;28;20091;-75
2022/01/23 15:23:16;;;;;;;6.97;3.10;;;9.40;91.70;;;;;;5028203;28;20487;-75
2022/01/23 15:25:44;;;;;;;6.45;2.95;;;9.40;91.70;;;;;;5029401;28;20046;-74
2022/01/23 15:28:10;;;;;;;4.10;2.78;;;9.40;91.70;;;;;;5029116;28;20033;-74
2022/01/23 15:30:36;;;;;;;;;;;9.40;91.70;;;;;;5028401;28;20024;-74
2022/01/23 15:33:04;;;;;;;5.93;3.10;;;9.30;91.70;;;;;;5028380;28;19917;-75
2022/01/23 15:35:30;;;;;;;12.75;4.28;;;9.30;91.70;;;;;;5029153;28;20064;-75
2022/01/23 15:37:56;;;;;;;7.47;3.80;;;9.30;91.80;;;;;;5027771;28;20021;-75
2022/01/23 15:40:23;;;;;;;6.10;3.45;;;9.30;91.80;;;;;;5028709;28;20091;-76
2022/01/23 15:42:52;;;;;;;7.82;3.45;;;9.40;91.80;;;;;;5028826;28;20021;-74
2022/01/23 15:45:20;;;;;;;9.02;3.03;;;9.30;91.80;;;;;;5028500;28;20037;-75
2022/01/23 15:47:46;;;;;;;9.15;3.45;;;9.30;91.80;;;;;;5028599;28;20369;-76
2022/01/23 15:50:14;;;;;;;15.55;4.47;;;9.30;91.80;;;;;;5028224;28;20091;-75
2022/01/23 15:52:41;;;;;;;8.95;3.55;;;9.30;91.90;;;;;;5026836;28;20112;-75
2022/01/23 15:55:09;;;;;;;7.72;4.10;;;9.30;91.90;;;;;;5028463;28;20025;-75
2022/01/23 15:57:35;;;;;;;8.18;4.13;;;9.30;91.90;;;;;;5028648;28;20293;-75
2022/01/23 16:00:01;;;;;;;8.07;4.60;;;9.20;91.90;;;;;;5028438;28;20412;-75
2022/01/23 16:02:27;;;;;;;9.65;4.68;;;9.20;92.00;;;;;;5026881;28;20036;-74
2022/01/23 16:04:53;;;;;;;8.13;4.75;;;9.20;92.00;;;;;;5026955;28;20029;-76
2022/01/23 16:07:19;;;;;;;8.68;4.97;;;9.20;92.10;;;;;;5028621;28;20026;-75
2022/01/23 16:09:45;;;;;;;11.20;4.40;;;9.20;92.10;;;;;;5027674;28;20432;-75
2022/01/23 16:12:15;;;;;;;7.63;5.28;;;9.30;92.20;;;;;;5029139;28;20077;-75
2022/01/23 16:14:41;;;;;;;7.13;4.50;;;9.30;92.10;;;;;;5027967;28;20014;-75
2022/01/23 16:17:07;;;;;;;8.30;5.20;;;9.20;92.10;;;;;;5026580;28;20032;-74
2022/01/23 16:19:33;;;;;;;7.40;4.75;;;9.20;92.10;;;;;;5026525;28;20021;-75
2022/01/23 16:21:59;;;;;;;;;;;9.20;92.20;;;;;;5028399;28;20031;-75
2022/01/23 16:24:26;;;;;;;9.45;4.90;;;9.20;92.20;;;;;;5027226;28;19917;-74
2022/01/23 16:26:52;;;;;;;;;;;9.20;92.20;;;;;;5028605;28;20095;-74
2022/01/23 16:29:21;;;;;;;9.82;4.35;;;9.20;92.20;;;;;;5026931;28;19909;-75
2022/01/23 16:31:47;;;;;;;13.20;5.13;;;9.20;92.20;;;;;;5026826;28;20033;-74
2022/01/23 16:34:13;;;;;;;11.55;4.95;;;9.20;92.20;;;;;;5026296;28;20362;-74
2022/01/23 16:36:39;;;;;;;5.63;4.43;;;9.20;92.20;;;;;;5026547;28;20357;-75
2022/01/23 16:39:05;;;;;;;8.50;5.18;;;9.20;92.20;;;;;;5026440;28;20087;-75
2022/01/23 16:41:31;;;;;;;11.05;4.97;;;9.20;92.20;;;;;;5026680;28;20076;-75
2022/01/23 16:43:58;;;;;;;6.93;4.93;;;9.10;92.20;;;;;;5027603;28;20035;-74
2022/01/23 16:46:23;;;;;;;;;;;9.10;92.30;;;;;;5010171;28;20076;-75